Time;durP1;ratioP1;P1;durP2;ratioP2;P2;SDS_P1;SDS_P2;PMS_P1;PMS_P2;Temp;Humidity;BMP_temperature;BMP_pressure;BME280_temperature;BME280_humidity;BME280_pressure;Samples;Min_cycle;Max_cycle;Signal;HPM_P1;HPM_P2
2023/11/30 00:00:29;;;;;;;4.93;3.80;;;17.20;47.50;;;;;;5092807;28;20622;-59
2023/11/30 00:02:56;;;;;;;5.35;4.03;;;17.20;47.50;;;;;;5093287;28;20236;-54
2023/11/30 00:05:24;;;;;;;5.38;4.03;;;17.20;47.50;;;;;;5092927;28;20384;-57
2023/11/30 00:07:52;;;;;;;4.85;4.05;;;17.10;47.40;;;;;;5092726;28;20228;-58
2023/11/30 00:10:19;;;;;;;5.40;3.90;;;17.10;48.10;;;;;;5088565;28;20246;-58
2023/11/30 00:12:46;;;;;;;5.65;3.70;;;17.10;47.40;;;;;;5073194;28;20281;-57
2023/11/30 00:15:14;;;;;;;6.15;4.22;;;17.10;47.40;;;;;;5075014;28;20680;-58
2023/11/30 00:17:41;;;;;;;4.85;3.60;;;17.10;47.40;;;;;;5093268;28;20596;-57
2023/11/30 00:20:10;;;;;;;6.20;4.38;;;17.10;47.40;;;;;;5092580;28;20190;-60
2023/11/30 00:22:40;;;;;;;4.80;3.65;;;17.10;47.40;;;;;;5092151;28;20194;-57
2023/11/30 00:25:08;;;;;;;5.07;4.22;;;17.10;47.40;;;;;;5092569;28;20189;-58
2023/11/30 00:27:35;;;;;;;6.70;3.92;;;17.10;47.40;;;;;;5092731;28;20186;-55
2023/11/30 00:30:02;;;;;;;5.32;3.53;;;17.10;47.40;;;;;;5092809;28;20707;-56
2023/11/30 00:32:29;;;;;;;5.45;3.92;;;17.10;47.50;;;;;;5053067;28;20192;-58
2023/11/30 00:34:55;;;;;;;4.47;3.67;;;17.10;47.40;;;;;;5052950;28;20595;-56
2023/11/30 00:37:22;;;;;;;5.32;3.70;;;17.10;47.40;;;;;;5071468;28;20190;-56
2023/11/30 00:39:51;;;;;;;5.28;4.05;;;17.10;47.40;;;;;;5073268;28;20695;-58
2023/11/30 00:42:18;;;;;;;5.90;3.90;;;17.10;47.40;;;;;;5090864;28;20196;-59
2023/11/30 00:44:45;;;;;;;5.75;3.72;;;17.10;47.40;;;;;;5093014;28;20663;-58
2023/11/30 00:47:12;;;;;;;7.13;3.60;;;17.10;48.10;;;;;;5092887;28;20182;-61
2023/11/30 00:49:39;;;;;;;4.90;3.90;;;17.10;47.40;;;;;;5092964;28;20216;-55
2023/11/30 00:52:06;;;;;;;4.65;3.53;;;17.10;47.40;;;;;;5092874;28;20265;-58
2023/11/30 00:54:33;;;;;;;4.75;3.90;;;17.10;47.40;;;;;;5093034;28;20221;-57
2023/11/30 00:57:02;;;;;;;4.63;3.50;;;17.10;48.00;;;;;;5091981;28;20190;-59
2023/11/30 00:59:28;;;;;;;5.22;4.07;;;17.10;47.40;;;;;;5092810;28;20217;-59
2023/11/30 01:01:55;;;;;;;5.28;3.78;;;17.10;48.00;;;;;;5092630;28;20269;-58
2023/11/30 01:04:22;;;;;;;5.35;4.00;;;17.10;47.40;;;;;;5092318;28;20316;-56
2023/11/30 01:06:49;;;;;;;8.50;3.95;;;17.10;48.10;;;;;;5092531;28;20298;-58
2023/11/30 01:09:16;;;;;;;4.80;3.90;;;17.10;47.40;;;;;;5092052;28;20582;-57
2023/11/30 01:11:44;;;;;;;4.70;4.00;;;17.10;48.10;;;;;;5076415;28;20281;-60
2023/11/30 01:14:12;;;;;;;8.80;3.83;;;17.10;47.40;;;;;;5072730;28;20246;-59
2023/11/30 01:16:39;;;;;;;4.72;3.50;;;17.10;47.40;;;;;;5082931;28;20273;-59
2023/11/30 01:19:06;;;;;;;5.07;3.45;;;17.10;47.40;;;;;;5092109;28;20217;-58
2023/11/30 01:21:33;;;;;;;6.18;4.22;;;17.00;47.40;;;;;;5092273;28;20273;-58
2023/11/30 01:24:00;;;;;;;5.57;3.85;;;17.00;47.30;;;;;;5091735;28;20248;-59
2023/11/30 01:26:27;;;;;;;4.82;3.97;;;17.00;48.00;;;;;;5092089;28;20186;-55
2023/11/30 01:28:54;;;;;;;5.35;3.38;;;17.10;47.40;;;;;;5092397;28;20582;-58
2023/11/30 01:31:22;;;;;;;5.18;3.63;;;17.00;47.40;;;;;;5092266;28;20593;-59
2023/11/30 01:33:49;;;;;;;6.28;3.85;;;17.00;47.30;;;;;;5091961;28;20309;-59
2023/11/30 01:36:16;;;;;;;4.93;3.60;;;17.00;47.40;;;;;;5087760;28;20232;-56
2023/11/30 01:38:43;;;;;;;4.97;3.70;;;17.00;47.40;;;;;;5071233;28;20567;-59
2023/11/30 01:41:10;;;;;;;4.38;3.55;;;17.00;47.40;;;;;;5071779;28;20195;-60
2023/11/30 01:43:37;;;;;;;6.20;4.10;;;17.00;47.40;;;;;;5071760;28;20210;-59
2023/11/30 01:46:05;;;;;;;4.15;3.17;;;17.00;48.00;;;;;;5072264;28;20289;-59
2023/11/30 01:48:34;;;;;;;5.00;3.47;;;17.00;47.40;;;;;;5071303;28;20183;-59
2023/11/30 01:51:04;;;;;;;6.40;3.85;;;17.00;47.30;;;;;;5072059;28;20191;-58
2023/11/30 01:53:31;;;;;;;5.53;3.90;;;17.00;47.40;;;;;;5071205;28;20226;-59
2023/11/30 01:55:58;;;;;;;5.65;3.80;;;17.00;47.30;;;;;;5071693;28;20185;-56
2023/11/30 01:58:26;;;;;;;5.18;3.70;;;17.00;47.40;;;;;;5071891;28;20675;-60
2023/11/30 02:00:54;;;;;;;4.45;3.45;;;17.00;47.40;;;;;;5071576;28;20297;-57
2023/11/30 02:03:21;;;;;;;3.90;3.50;;;17.00;47.40;;;;;;5070924;28;20297;-60
2023/11/30 02:05:51;;;;;;;4.47;3.47;;;17.00;47.40;;;;;;5071782;28;20309;-55
2023/11/30 02:08:18;;;;;;;6.30;3.25;;;17.00;47.40;;;;;;5070831;28;20186;-59
2023/11/30 02:10:45;;;;;;;6.10;3.22;;;17.00;48.00;;;;;;5072470;28;20663;-61
2023/11/30 02:13:12;;;;;;;4.88;3.70;;;17.00;48.00;;;;;;5095252;28;20659;-59
2023/11/30 02:15:39;;;;;;;3.72;3.22;;;17.00;47.40;;;;;;5087553;28;20293;-57
2023/11/30 02:18:06;;;;;;;5.53;3.58;;;17.00;48.00;;;;;;5075390;28;20282;-57
2023/11/30 02:20:33;;;;;;;7.00;3.58;;;17.00;47.40;;;;;;5075709;28;20218;-57
2023/11/30 02:23:01;;;;;;;5.90;3.78;;;17.00;47.40;;;;;;5074685;28;20559;-59
2023/11/30 02:25:28;;;;;;;4.93;3.53;;;17.00;47.40;;;;;;5075368;28;20236;-58
2023/11/30 02:27:58;;;;;;;5.18;3.92;;;17.00;48.00;;;;;;5075406;28;20190;-60
2023/11/30 02:30:26;;;;;;;5.00;3.92;;;17.00;47.40;;;;;;5074828;28;20580;-60
2023/11/30 02:32:53;;;;;;;4.43;3.20;;;16.90;47.30;;;;;;5075039;28;20191;-58
2023/11/30 02:35:19;;;;;;;4.28;3.53;;;16.90;47.30;;;;;;5075462;28;20225;-56
2023/11/30 02:37:46;;;;;;;5.07;3.65;;;16.90;47.30;;;;;;5090617;28;20274;-58
2023/11/30 02:40:15;;;;;;;4.82;3.65;;;16.90;47.90;;;;;;5095225;28;20574;-59
2023/11/30 02:42:42;;;;;;;4.10;3.45;;;17.00;47.40;;;;;;5095051;28;20190;-60
2023/11/30 02:45:09;;;;;;;3.33;3.03;;;16.90;47.30;;;;;;5095398;28;20240;-57
2023/11/30 02:47:36;;;;;;;4.88;3.47;;;16.90;47.30;;;;;;5094202;28;20281;-58
2023/11/30 02:50:03;;;;;;;5.53;3.75;;;16.90;48.00;;;;;;5094577;28;20218;-56
2023/11/30 02:52:30;;;;;;;3.75;3.30;;;16.90;47.30;;;;;;5094161;28;20281;-57
2023/11/30 02:54:57;;;;;;;5.68;3.45;;;16.90;47.40;;;;;;5094997;28;20226;-57
2023/11/30 02:57:26;;;;;;;4.82;3.50;;;16.90;47.40;;;;;;5094828;28;20612;-58
2023/11/30 02:59:53;;;;;;;4.88;3.53;;;16.90;47.30;;;;;;5095284;28;20306;-58
2023/11/30 03:02:19;;;;;;;5.25;3.50;;;16.90;47.30;;;;;;5094607;28;20645;-57
2023/11/30 03:04:47;;;;;;;6.25;3.65;;;16.90;47.40;;;;;;5095035;28;20240;-61
2023/11/30 03:07:13;;;;;;;5.53;3.72;;;16.90;47.30;;;;;;5094004;28;20268;-58
2023/11/30 03:09:40;;;;;;;3.72;3.20;;;16.90;47.90;;;;;;5094099;28;20320;-60
2023/11/30 03:12:08;;;;;;;4.97;3.72;;;16.90;47.40;;;;;;5075159;28;20202;-57
2023/11/30 03:14:36;;;;;;;4.40;3.40;;;16.90;47.40;;;;;;5074403;28;20211;-60
2023/11/30 03:17:03;;;;;;;5.28;3.88;;;16.90;47.40;;;;;;5062110;28;20186;-61
2023/11/30 03:19:30;;;;;;;5.03;3.78;;;16.90;47.40;;;;;;5074583;28;20191;-58
2023/11/30 03:21:57;;;;;;;5.63;3.83;;;16.90;47.40;;;;;;5038556;28;20277;-61
2023/11/30 03:24:24;;;;;;;5.22;3.72;;;16.90;47.40;;;;;;5074006;28;20211;-58
2023/11/30 03:26:51;;;;;;;4.10;3.65;;;16.90;47.40;;;;;;5074335;28;20193;-59
2023/11/30 03:29:18;;;;;;;4.72;3.90;;;16.90;47.40;;;;;;5074088;28;20187;-59
2023/11/30 03:31:46;;;;;;;5.40;3.47;;;16.90;47.40;;;;;;5073311;28;20596;-57
2023/11/30 03:34:13;;;;;;;5.22;3.63;;;16.90;47.40;;;;;;5074085;28;20191;-60
2023/11/30 03:36:40;;;;;;;5.03;3.83;;;16.90;47.40;;;;;;5076464;28;20205;-60
2023/11/30 03:39:07;;;;;;;4.97;3.65;;;16.90;47.40;;;;;;5093508;28;20565;-58
2023/11/30 03:41:34;;;;;;;4.15;3.33;;;16.90;47.40;;;;;;5093742;28;20214;-59
2023/11/30 03:44:01;;;;;;;4.70;3.70;;;16.90;48.10;;;;;;5093898;28;20214;-59
2023/11/30 03:46:28;;;;;;;4.10;3.58;;;16.80;47.30;;;;;;5093897;28;20210;-59
2023/11/30 03:48:57;;;;;;;6.18;3.55;;;16.90;47.40;;;;;;5094351;28;20281;-56
2023/11/30 03:51:24;;;;;;;5.97;3.63;;;16.80;47.90;;;;;;5093145;28;20745;-57
2023/11/30 03:53:51;;;;;;;6.03;3.58;;;16.90;47.40;;;;;;5094140;28;20186;-61
2023/11/30 03:56:18;;;;;;;4.30;3.55;;;16.80;47.90;;;;;;5093828;28;20214;-60
2023/11/30 03:58:45;;;;;;;3.90;3.50;;;16.80;47.30;;;;;;5093424;28;20277;-56
2023/11/30 04:01:12;;;;;;;3.83;3.42;;;16.80;47.30;;;;;;5093190;28;20228;-60
2023/11/30 04:03:39;;;;;;;4.72;3.55;;;16.80;47.30;;;;;;5093147;28;20208;-56
2023/11/30 04:06:08;;;;;;;4.05;3.15;;;16.80;47.40;;;;;;5093184;28;20699;-57
2023/11/30 04:08:35;;;;;;;5.25;3.60;;;16.80;47.30;;;;;;5093396;28;20274;-60
2023/11/30 04:11:02;;;;;;;4.30;3.35;;;16.80;47.30;;;;;;5083079;28;20246;-59
2023/11/30 04:13:29;;;;;;;5.22;4.03;;;16.80;47.90;;;;;;5073570;28;20201;-60
2023/11/30 04:15:56;;;;;;;4.93;3.10;;;16.80;47.30;;;;;;5073275;28;20214;-58
2023/11/30 04:18:23;;;;;;;4.03;3.40;;;16.80;47.90;;;;;;5088431;28;20531;-59
2023/11/30 04:20:50;;;;;;;5.13;3.53;;;16.80;47.30;;;;;;5092304;28;20318;-58
2023/11/30 04:23:19;;;;;;;6.72;3.50;;;16.80;47.40;;;;;;5092584;28;20194;-58
2023/11/30 04:25:46;;;;;;;4.20;3.42;;;16.80;47.90;;;;;;5093701;28;20256;-58
2023/11/30 04:28:12;;;;;;;4.20;3.63;;;16.80;47.30;;;;;;5093360;28;20269;-57
2023/11/30 04:30:39;;;;;;;4.80;3.47;;;16.80;47.90;;;;;;5092913;28;20243;-58
2023/11/30 04:33:06;;;;;;;5.03;4.00;;;16.80;47.30;;;;;;5092474;28;20647;-60
2023/11/30 04:35:33;;;;;;;7.25;3.47;;;16.80;47.30;;;;;;5093377;28;20325;-59
2023/11/30 04:38:00;;;;;;;5.05;3.90;;;16.80;47.30;;;;;;5073297;28;20197;-57
2023/11/30 04:40:28;;;;;;;4.50;3.20;;;16.80;47.40;;;;;;5072747;28;20190;-58
2023/11/30 04:42:55;;;;;;;6.22;3.40;;;16.80;47.30;;;;;;5072043;28;20244;-58
2023/11/30 04:45:22;;;;;;;5.57;3.22;;;16.80;47.40;;;;;;5072590;28;20306;-59
2023/11/30 04:47:48;;;;;;;4.82;3.35;;;16.80;47.30;;;;;;5072748;28;20784;-61
2023/11/30 04:50:15;;;;;;;4.13;3.28;;;16.80;47.90;;;;;;5072319;28;20824;-59
2023/11/30 04:52:42;;;;;;;3.83;3.10;;;16.80;47.30;;;;;;5071677;28;20218;-60
2023/11/30 04:55:09;;;;;;;5.38;3.70;;;16.80;47.90;;;;;;5073012;28;20278;-61
2023/11/30 04:57:38;;;;;;;4.35;3.25;;;16.80;47.30;;;;;;5072988;28;20211;-60
2023/11/30 05:00:06;;;;;;;4.53;3.58;;;16.80;47.30;;;;;;5072058;28;20724;-59
2023/11/30 05:02:36;;;;;;;4.70;3.47;;;16.80;47.40;;;;;;5072513;28;20475;-61
2023/11/30 05:05:03;;;;;;;5.70;3.88;;;16.70;47.90;;;;;;5072560;28;20221;-59
2023/11/30 05:07:30;;;;;;;5.47;3.72;;;16.80;47.30;;;;;;5071373;28;20222;-60
2023/11/30 05:09:57;;;;;;;4.85;3.22;;;16.80;47.40;;;;;;5072014;28;20329;-61
2023/11/30 05:12:24;;;;;;;4.45;3.42;;;16.70;47.20;;;;;;5076316;28;20220;-61
2023/11/30 05:14:53;;;;;;;5.43;3.30;;;16.80;47.40;;;;;;5090568;28;20217;-56
2023/11/30 05:17:20;;;;;;;5.15;3.50;;;16.70;47.20;;;;;;5072704;28;20218;-56
2023/11/30 05:19:46;;;;;;;5.22;3.67;;;16.80;47.40;;;;;;5072319;28;20190;-60
2023/11/30 05:22:13;;;;;;;5.05;3.10;;;16.70;47.20;;;;;;5071406;28;20640;-59
2023/11/30 05:24:40;;;;;;;4.10;3.33;;;16.70;47.20;;;;;;5072282;28;20311;-60
2023/11/30 05:27:07;;;;;;;4.18;3.13;;;16.70;47.90;;;;;;5072345;28;20215;-58
2023/11/30 05:29:34;;;;;;;4.50;3.13;;;16.70;47.20;;;;;;5071616;28;20628;-59
2023/11/30 05:32:03;;;;;;;4.22;3.38;;;16.70;47.90;;;;;;5072397;28;20297;-60
2023/11/30 05:34:30;;;;;;;3.60;3.30;;;16.70;47.20;;;;;;5052144;28;20188;-60
2023/11/30 05:36:57;;;;;;;5.82;3.53;;;16.70;47.90;;;;;;5060926;28;20593;-60
2023/11/30 05:39:24;;;;;;;5.75;3.70;;;16.70;47.20;;;;;;5091243;28;20268;-60
2023/11/30 05:41:51;;;;;;;3.70;3.10;;;16.70;47.30;;;;;;5092423;28;20310;-57
2023/11/30 05:44:18;;;;;;;4.53;3.53;;;16.70;47.30;;;;;;5091392;28;20269;-59
2023/11/30 05:46:46;;;;;;;3.90;3.13;;;16.70;47.30;;;;;;5092057;28;20743;-57
2023/11/30 05:49:15;;;;;;;5.43;3.25;;;16.70;47.30;;;;;;5092031;28;20194;-61
2023/11/30 05:51:42;;;;;;;3.85;2.95;;;16.70;47.20;;;;;;5091059;28;20219;-60
2023/11/30 05:54:10;;;;;;;3.58;3.05;;;16.70;47.90;;;;;;5092198;28;20276;-60
2023/11/30 05:56:37;;;;;;;5.28;3.70;;;16.70;47.30;;;;;;5092058;28;20250;-59
2023/11/30 05:59:04;;;;;;;3.83;3.38;;;16.70;47.30;;;;;;5091104;28;20516;-61
2023/11/30 06:01:30;;;;;;;4.35;3.20;;;16.70;47.90;;;;;;5091534;28;20296;-59
2023/11/30 06:03:57;;;;;;;4.10;3.38;;;16.70;47.20;;;;;;5091193;28;20190;-59
2023/11/30 06:06:26;;;;;;;4.18;3.50;;;16.70;47.20;;;;;;5090776;28;20593;-59
2023/11/30 06:08:53;;;;;;;4.78;3.13;;;16.70;47.20;;;;;;5091711;28;20186;-59
2023/11/30 06:11:20;;;;;;;4.07;3.25;;;16.70;47.30;;;;;;5078875;28;20313;-60
2023/11/30 06:13:47;;;;;;;5.07;3.28;;;16.70;47.30;;;;;;5071830;28;20201;-61
2023/11/30 06:16:14;;;;;;;3.85;3.30;;;16.70;47.30;;;;;;5071785;28;20190;-60
2023/11/30 06:18:41;;;;;;;3.97;3.30;;;16.70;47.30;;;;;;5082363;28;20281;-60
2023/11/30 06:21:10;;;;;;;4.45;3.10;;;16.70;47.30;;;;;;5090264;28;20208;-58
2023/11/30 06:23:38;;;;;;;5.65;3.50;;;16.70;47.30;;;;;;5090979;28;20197;-60
2023/11/30 06:26:07;;;;;;;4.72;3.58;;;16.60;47.20;;;;;;5091334;28;20240;-61
2023/11/30 06:28:34;;;;;;;4.18;3.30;;;16.70;47.20;;;;;;5091339;28;20222;-58
2023/11/30 06:31:01;;;;;;;4.78;3.55;;;16.70;47.30;;;;;;5091812;28;20186;-60
2023/11/30 06:33:28;;;;;;;4.53;3.13;;;16.70;47.30;;;;;;5091814;28;20237;-61
2023/11/30 06:35:55;;;;;;;5.65;3.97;;;16.60;47.10;;;;;;5089511;28;20182;-58
2023/11/30 06:38:22;;;;;;;3.95;3.15;;;16.60;47.20;;;;;;5071865;28;20298;-61
2023/11/30 06:40:50;;;;;;;3.85;2.92;;;16.60;47.80;;;;;;5071127;28;20187;-59
2023/11/30 06:43:17;;;;;;;6.05;2.90;;;16.60;47.10;;;;;;5071183;28;20218;-60
2023/11/30 06:45:44;;;;;;;4.82;3.10;;;16.60;47.20;;;;;;5071513;28;20219;-60
2023/11/30 06:48:11;;;;;;;4.38;3.22;;;16.70;47.30;;;;;;5071632;28;20298;-61
2023/11/30 06:50:38;;;;;;;4.55;3.30;;;16.60;47.90;;;;;;5070353;28;20198;-59
2023/11/30 06:53:05;;;;;;;3.83;3.03;;;16.60;47.20;;;;;;5071478;28;20588;-60
2023/11/30 06:55:31;;;;;;;5.05;3.15;;;16.60;47.20;;;;;;5072995;28;20209;-59
2023/11/30 06:58:00;;;;;;;4.72;3.20;;;16.60;47.20;;;;;;5075002;28;20310;-58
2023/11/30 07:00:27;;;;;;;4.43;3.75;;;16.60;47.20;;;;;;5074983;28;20187;-57
2023/11/30 07:02:54;;;;;;;4.47;3.20;;;16.60;47.20;;;;;;5074575;28;20224;-59
2023/11/30 07:05:21;;;;;;;4.97;3.33;;;16.60;47.20;;;;;;5073551;28;20234;-60
2023/11/30 07:07:49;;;;;;;4.38;3.30;;;16.60;47.20;;;;;;5075072;28;20297;-60
2023/11/30 07:10:16;;;;;;;6.13;3.20;;;16.60;47.20;;;;;;5074340;28;20223;-59
2023/11/30 07:12:45;;;;;;;4.15;3.22;;;16.60;47.10;;;;;;5074560;28;20607;-60
2023/11/30 07:15:14;;;;;;;4.93;2.90;;;16.60;47.20;;;;;;5059410;28;20782;-61
2023/11/30 07:17:41;;;;;;;4.25;2.90;;;16.60;47.10;;;;;;5074781;28;20210;-58
2023/11/30 07:20:09;;;;;;;4.78;3.22;;;16.60;47.20;;;;;;5093297;28;20307;-60
2023/11/30 07:22:36;;;;;;;3.67;3.22;;;16.60;47.20;;;;;;5094275;28;20216;-61
2023/11/30 07:25:03;;;;;;;3.75;3.05;;;16.60;47.10;;;;;;5094012;28;20222;-59
2023/11/30 07:27:30;;;;;;;3.55;2.90;;;16.60;47.10;;;;;;5093965;28;20292;-59
2023/11/30 07:29:57;;;;;;;3.75;2.83;;;16.50;47.10;;;;;;5093932;28;20190;-59
2023/11/30 07:32:26;;;;;;;4.40;3.00;;;16.60;47.10;;;;;;5094165;28;20583;-61
2023/11/30 07:34:52;;;;;;;4.13;3.15;;;16.50;47.10;;;;;;5093009;28;20273;-60
2023/11/30 07:37:22;;;;;;;4.22;2.95;;;16.50;47.10;;;;;;5080879;28;20269;-61
2023/11/30 07:39:49;;;;;;;4.00;3.03;;;16.60;47.10;;;;;;5074568;28;20274;-55
2023/11/30 07:42:16;;;;;;;3.67;2.90;;;16.50;47.10;;;;;;5074011;28;20214;-56
2023/11/30 07:44:43;;;;;;;3.50;2.85;;;16.50;47.70;;;;;;5074378;28;20278;-56
2023/11/30 07:47:11;;;;;;;3.60;2.85;;;16.60;47.20;;;;;;5074346;28;20278;-58
2023/11/30 07:49:39;;;;;;;6.28;3.33;;;16.50;47.10;;;;;;5072764;28;20226;-56
2023/11/30 07:52:06;;;;;;;3.65;3.00;;;16.50;47.70;;;;;;5066409;28;20277;-57
2023/11/30 07:54:33;;;;;;;4.00;2.50;;;16.50;47.10;;;;;;5056460;28;20227;-56
2023/11/30 07:57:01;;;;;;;4.05;3.13;;;16.60;47.10;;;;;;5059996;28;20230;-55
2023/11/30 07:59:28;;;;;;;5.32;2.72;;;16.60;47.10;;;;;;5066990;28;20222;-58
2023/11/30 08:01:55;;;;;;;3.85;3.10;;;16.60;47.10;;;;;;5056240;28;20195;-59
2023/11/30 08:04:22;;;;;;;2.95;2.50;;;16.70;47.20;;;;;;5053827;28;20707;-56
2023/11/30 08:06:50;;;;;;;3.53;2.72;;;16.70;47.20;;;;;;5066754;28;20214;-56
2023/11/30 08:09:17;;;;;;;3.38;3.03;;;16.70;47.20;;;;;;5071095;28;20214;-57
2023/11/30 08:11:44;;;;;;;5.13;2.85;;;16.70;47.70;;;;;;5071654;28;20209;-58
2023/11/30 08:14:12;;;;;;;4.20;2.90;;;16.70;47.10;;;;;;5070696;28;21472;-59
2023/11/30 08:16:39;;;;;;;3.78;2.90;;;16.80;47.20;;;;;;5071150;28;20252;-57
2023/11/30 08:19:07;;;;;;;4.35;2.63;;;16.80;47.90;;;;;;5067600;28;20218;-57
2023/11/30 08:21:39;;;;;;;4.03;2.63;;;16.80;47.20;;;;;;5066945;28;20191;-59
2023/11/30 08:24:08;;;;;;;3.95;2.70;;;16.80;47.10;;;;;;5057079;28;20231;-58
2023/11/30 08:26:35;;;;;;;3.17;2.50;;;16.90;47.10;;;;;;5055460;28;20225;-57
2023/11/30 08:29:02;;;;;;;4.32;3.10;;;16.90;47.10;;;;;;5057396;28;20216;-56
2023/11/30 08:31:29;;;;;;;3.38;2.90;;;16.90;47.10;;;;;;5059949;28;20294;-60
2023/11/30 08:33:56;;;;;;;8.85;2.70;;;16.90;47.00;;;;;;5075973;28;20217;-57
2023/11/30 08:36:24;;;;;;;3.95;2.80;;;16.90;47.10;;;;;;5083535;28;20189;-56
2023/11/30 08:38:51;;;;;;;4.07;3.10;;;16.90;47.00;;;;;;5074885;28;20242;-57
2023/11/30 08:41:21;;;;;;;3.13;2.75;;;16.90;47.10;;;;;;5085690;28;20205;-58
2023/11/30 08:43:48;;;;;;;3.90;2.72;;;16.90;47.10;;;;;;5074791;28;20630;-56
2023/11/30 08:46:15;;;;;;;2.88;2.60;;;16.90;47.10;;;;;;5080923;28;20235;-58
2023/11/30 08:48:42;;;;;;;4.38;2.90;;;16.90;47.70;;;;;;5073590;28;20237;-61
2023/11/30 08:51:10;;;;;;;3.22;2.83;;;17.00;47.10;;;;;;5081845;28;20609;-57
2023/11/30 08:53:37;;;;;;;3.08;2.50;;;17.00;47.10;;;;;;5084769;28;20225;-57
2023/11/30 08:56:05;;;;;;;2.70;2.30;;;17.00;47.70;;;;;;5068912;28;20202;-52
2023/11/30 08:58:33;;;;;;;4.13;2.92;;;17.00;47.00;;;;;;5078013;28;20545;-57
2023/11/30 09:01:00;;;;;;;5.03;2.35;;;17.10;47.00;;;;;;5070594;28;20231;-55
2023/11/30 09:03:27;;;;;;;4.90;2.90;;;17.10;46.90;;;;;;5066924;28;20269;-59
2023/11/30 09:05:54;;;;;;;5.78;2.88;;;17.10;46.80;;;;;;5067578;28;20288;-64
2023/11/30 09:08:21;;;;;;;2.47;2.28;;;17.10;46.90;;;;;;5069189;28;20225;-60
2023/11/30 09:10:48;;;;;;;3.13;2.83;;;17.10;46.90;;;;;;5062069;28;20237;-56
2023/11/30 09:13:15;;;;;;;8.73;3.13;;;17.10;47.00;;;;;;5071507;28;20186;-64
2023/11/30 09:15:44;;;;;;;3.40;2.50;;;17.10;47.10;;;;;;5081260;28;20214;-56
2023/11/30 09:18:11;;;;;;;3.42;2.42;;;17.10;47.10;;;;;;5073504;28;20182;-57
2023/11/30 09:20:38;;;;;;;4.85;3.05;;;17.10;47.10;;;;;;5073217;28;20278;-60
2023/11/30 09:23:06;;;;;;;4.53;2.40;;;17.10;47.20;;;;;;5069078;28;20215;-57
2023/11/30 09:25:33;;;;;;;3.65;2.67;;;17.10;47.30;;;;;;5083765;28;20238;-65
2023/11/30 09:28:00;;;;;;;5.93;2.50;;;17.10;47.90;;;;;;5061357;28;20194;-60
2023/11/30 09:30:27;;;;;;;9.52;2.63;;;17.10;47.30;;;;;;5067452;28;20735;-58
2023/11/30 09:32:55;;;;;;;4.05;2.20;;;17.10;47.40;;;;;;5055134;28;20221;-63
2023/11/30 09:35:24;;;;;;;5.55;2.40;;;17.10;47.60;;;;;;5053728;28;20218;-56
2023/11/30 09:37:51;;;;;;;4.90;2.60;;;17.10;47.70;;;;;;5065625;28;20756;-59
2023/11/30 09:40:18;;;;;;;5.15;2.50;;;17.10;48.20;;;;;;5074450;28;20279;-53
2023/11/30 09:42:46;;;;;;;13.05;2.90;;;17.10;47.90;;;;;;5078914;28;20200;-60
2023/11/30 09:45:14;;;;;;;8.77;2.42;;;17.20;47.80;;;;;;5068954;28;20250;-53
2023/11/30 09:47:42;;;;;;;18.58;2.53;;;17.20;47.70;;;;;;5082567;28;20660;-61
2023/11/30 09:50:12;;;;;;;6.75;2.83;;;17.30;47.90;;;;;;5066358;28;20215;-64
2023/11/30 09:52:39;;;;;;;10.20;2.88;;;17.30;48.00;;;;;;5076984;28;20186;-59
2023/11/30 09:55:08;;;;;;;8.05;2.42;;;17.30;47.80;;;;;;5064883;28;20707;-53
2023/11/30 09:57:35;;;;;;;6.03;2.42;;;17.30;47.80;;;;;;5069017;28;20185;-59
2023/11/30 10:00:03;;;;;;;48.30;22.92;;;17.30;47.80;;;;;;5066661;28;20325;-61
2023/11/30 10:02:31;;;;;;;83.57;35.38;;;17.30;47.80;;;;;;5064354;28;20678;-66
2023/11/30 10:04:57;;;;;;;99.03;45.78;;;17.30;47.70;;;;;;5080920;28;20718;-61
2023/11/30 10:07:29;;;;;;;144.38;59.20;;;17.30;47.70;;;;;;5063468;28;20223;-56
2023/11/30 10:09:56;;;;;;;156.50;65.68;;;17.30;47.70;;;;;;5056851;28;20326;-58
2023/11/30 10:12:24;;;;;;;150.23;69.20;;;17.40;47.60;;;;;;5069525;28;20218;-59
2023/11/30 10:15:00;;;;;;;134.35;62.92;;;17.40;47.80;;;;;;5068420;28;20221;-59
2023/11/30 10:17:27;;;;;;;140.13;64.25;;;17.50;47.70;;;;;;5068093;28;20187;-59
2023/11/30 10:19:55;;;;;;;148.48;56.83;;;17.50;47.60;;;;;;5072388;28;20218;-55
2023/11/30 10:22:23;;;;;;;127.30;55.80;;;17.50;47.40;;;;;;5071571;28;20644;-61
2023/11/30 10:24:51;;;;;;;129.30;52.60;;;17.50;47.50;;;;;;5077211;28;20248;-59
2023/11/30 10:27:21;;;;;;;118.50;48.20;;;17.50;47.50;;;;;;5073726;28;20715;-61
2023/11/30 10:29:49;;;;;;;106.63;44.50;;;17.50;47.50;;;;;;5064733;28;20219;-64
2023/11/30 10:32:18;;;;;;;94.65;41.42;;;17.50;47.70;;;;;;5069478;28;20190;-61
2023/11/30 10:34:48;;;;;;;87.30;39.92;;;17.50;48.00;;;;;;5057910;28;20200;-62
2023/11/30 10:37:20;;;;;;;73.70;36.75;;;17.60;47.80;;;;;;5070279;28;20206;-55
2023/11/30 10:40:00;;;;;;;85.13;34.92;;;17.70;47.80;;;;;;5068876;28;20187;-59
2023/11/30 10:42:28;;;;;;;72.78;32.05;;;17.80;47.70;;;;;;5067630;28;20276;-58
2023/11/30 10:45:00;;;;;;;62.63;29.40;;;17.90;47.60;;;;;;5072769;28;20194;-61
2023/11/30 10:47:29;;;;;;;51.95;26.75;;;18.00;48.10;;;;;;5072491;28;20210;-60
2023/11/30 10:49:59;;;;;;;49.15;25.02;;;18.10;47.30;;;;;;5073123;28;20644;-60
2023/11/30 10:52:27;;;;;;;45.97;24.35;;;18.30;47.80;;;;;;5073826;28;20183;-60
2023/11/30 10:55:03;;;;;;;43.10;22.52;;;18.40;47.00;;;;;;5073381;28;20273;-61
2023/11/30 10:57:31;;;;;;;40.22;20.50;;;18.50;47.30;;;;;;5073667;28;20759;-61
2023/11/30 10:59:59;;;;;;;38.38;18.52;;;18.70;46.60;;;;;;5074249;28;20271;-59
2023/11/30 11:02:25;;;;;;;60.90;18.65;;;18.80;46.40;;;;;;5073295;28;20229;-61
2023/11/30 11:04:53;;;;;;;46.25;17.33;;;19.00;46.30;;;;;;5072714;28;20190;-59
2023/11/30 11:07:20;;;;;;;90.78;20.67;;;19.10;46.70;;;;;;5072306;28;20269;-60
2023/11/30 11:09:52;;;;;;;76.90;18.50;;;19.20;45.80;;;;;;5073500;28;20223;-61
2023/11/30 11:12:22;;;;;;;156.27;24.88;;;19.30;45.60;;;;;;5053184;28;20716;-59
2023/11/30 11:14:50;;;;;;;108.75;21.13;;;19.50;45.80;;;;;;5053476;28;20270;-61
2023/11/30 11:17:20;;;;;;;112.80;19.38;;;19.50;45.60;;;;;;5052677;28;20760;-59
2023/11/30 11:19:47;;;;;;;106.57;20.00;;;19.60;45.60;;;;;;5052606;28;20190;-58
2023/11/30 11:22:15;;;;;;;79.55;18.58;;;19.70;45.20;;;;;;5053231;28;20302;-59
2023/11/30 11:24:42;;;;;;;63.13;19.00;;;19.80;45.10;;;;;;5072505;28;20186;-58
2023/11/30 11:27:09;;;;;;;67.68;19.23;;;19.90;45.20;;;;;;5073469;28;20333;-58
2023/11/30 11:29:37;;;;;;;59.08;19.20;;;19.90;45.10;;;;;;5073524;28;20456;-55
2023/11/30 11:32:05;;;;;;;52.05;21.60;;;20.00;45.60;;;;;;5071622;28;20218;-59
2023/11/30 11:34:32;;;;;;;53.58;20.05;;;20.00;44.80;;;;;;5072584;28;20226;-59
2023/11/30 11:36:58;;;;;;;59.38;23.02;;;20.10;44.90;;;;;;5072476;28;20337;-58
2023/11/30 11:39:25;;;;;;;52.40;25.52;;;20.20;44.90;;;;;;5072982;28;20270;-59
2023/11/30 11:41:52;;;;;;;60.67;24.42;;;20.20;44.80;;;;;;5072361;28;20222;-57
2023/11/30 11:44:20;;;;;;;49.13;22.05;;;20.20;45.10;;;;;;5073189;28;20191;-56
2023/11/30 11:46:48;;;;;;;50.17;23.98;;;20.30;44.70;;;;;;5072480;28;20349;-57
2023/11/30 11:49:15;;;;;;;47.15;24.52;;;20.40;44.60;;;;;;5072553;28;20195;-59
2023/11/30 11:51:44;;;;;;;48.97;25.13;;;20.40;45.20;;;;;;5072891;28;20257;-58
2023/11/30 11:54:17;;;;;;;46.05;24.05;;;20.50;44.50;;;;;;5072127;28;20191;-58
2023/11/30 11:56:48;;;;;;;45.05;24.38;;;20.50;44.40;;;;;;5070933;28;20570;-59
2023/11/30 11:59:20;;;;;;;48.58;24.73;;;20.60;44.50;;;;;;5072752;28;20222;-61
2023/11/30 12:01:48;;;;;;;42.30;24.73;;;20.60;44.30;;;;;;5066185;28;20646;-60
2023/11/30 12:04:26;;;;;;;50.95;28.00;;;20.60;44.80;;;;;;5066239;28;20691;-60
2023/11/30 12:06:53;;;;;;;60.22;34.78;;;20.70;44.20;;;;;;5072010;28;20239;-60
2023/11/30 12:09:20;;;;;;;72.05;40.33;;;20.70;44.10;;;;;;5071127;28;20199;-60
2023/11/30 12:11:48;;;;;;;107.25;56.03;;;20.80;44.00;;;;;;5072930;28;20573;-59
2023/11/30 12:14:16;;;;;;;118.00;62.30;;;20.80;44.00;;;;;;5072892;28;20206;-57
2023/11/30 12:16:43;;;;;;;121.63;63.90;;;20.90;43.90;;;;;;5070272;28;20218;-60
2023/11/30 12:19:12;;;;;;;152.82;78.22;;;20.90;43.80;;;;;;5053205;28;20191;-59
2023/11/30 12:21:40;;;;;;;162.07;84.60;;;20.90;43.70;;;;;;5051791;28;20670;-58
2023/11/30 12:24:08;;;;;;;187.73;97.80;;;20.90;43.70;;;;;;5058235;28;20645;-61
2023/11/30 12:26:35;;;;;;;207.80;107.32;;;21.00;43.70;;;;;;5068760;28;20298;-60
2023/11/30 12:29:02;;;;;;;199.95;104.07;;;21.10;43.70;;;;;;5070830;28;20333;-60
2023/11/30 12:31:29;;;;;;;233.10;121.80;;;21.10;44.20;;;;;;5065208;28;20295;-60
2023/11/30 12:33:56;;;;;;;230.48;120.07;;;21.10;43.40;;;;;;5059848;28;20219;-61
2023/11/30 12:36:25;;;;;;;212.65;113.75;;;21.20;43.40;;;;;;5057208;28;20278;-61
2023/11/30 12:38:52;;;;;;;236.93;123.70;;;21.20;43.40;;;;;;5071137;28;20783;-61
2023/11/30 12:41:19;;;;;;;252.27;129.65;;;21.30;43.40;;;;;;5071857;28;20191;-61